sensor_id;sensor_type;location;lat;lon;timestamp;temperature;humidity
18894;DHT22;9579;49.488;8.226;2023-05-24T00:03:28;16.10;95.30
18894;DHT22;9579;49.488;8.226;2023-05-24T00:06:16;16.00;95.70
18894;DHT22;9579;49.488;8.226;2023-05-24T05:47:20;14.70;93.70
18894;DHT22;9579;49.488;8.226;2023-05-24T05:50:08;14.80;93.30
18894;DHT22;9579;49.488;8.226;2023-05-24T05:52:55;14.90;93.00
18894;DHT22;9579;49.488;8.226;2023-05-24T05:55:42;14.90;92.60
18894;DHT22;9579;49.488;8.226;2023-05-24T05:58:29;14.90;92.90
18894;DHT22;9579;49.488;8.226;2023-05-24T06:01:16;15.00;92.60
18894;DHT22;9579;49.488;8.226;2023-05-24T06:04:04;15.10;93.00
18894;DHT22;9579;49.488;8.226;2023-05-24T06:06:52;15.20;92.60
18894;DHT22;9579;49.488;8.226;2023-05-24T06:09:38;15.20;92.80
18894;DHT22;9579;49.488;8.226;2023-05-24T06:12:26;15.30;92.60
18894;DHT22;9579;49.488;8.226;2023-05-24T06:15:13;15.30;92.30
18894;DHT22;9579;49.488;8.226;2023-05-24T06:18:00;15.30;91.80
18894;DHT22;9579;49.488;8.226;2023-05-24T06:20:49;15.50;91.80
18894;DHT22;9579;49.488;8.226;2023-05-24T06:23:36;15.70;92.20
18894;DHT22;9579;49.488;8.226;2023-05-24T06:26:23;15.90;92.10
18894;DHT22;9579;49.488;8.226;2023-05-24T06:29:11;16.10;92.70
18894;DHT22;9579;49.488;8.226;2023-05-24T06:32:01;16.40;91.60
18894;DHT22;9579;49.488;8.226;2023-05-24T06:34:48;16.40;91.10
18894;DHT22;9579;49.488;8.226;2023-05-24T06:37:37;16.40;91.50
18894;DHT22;9579;49.488;8.226;2023-05-24T06:40:26;16.30;90.70
18894;DHT22;9579;49.488;8.226;2023-05-24T06:43:13;16.40;89.90
18894;DHT22;9579;49.488;8.226;2023-05-24T06:46:00;16.60;88.60
18894;DHT22;9579;49.488;8.226;2023-05-24T06:48:48;16.80;87.60
18894;DHT22;9579;49.488;8.226;2023-05-24T06:51:35;16.90;87.50
18894;DHT22;9579;49.488;8.226;2023-05-24T06:54:25;17.00;86.70
18894;DHT22;9579;49.488;8.226;2023-05-24T06:57:12;16.90;86.40
18894;DHT22;9579;49.488;8.226;2023-05-24T06:59:59;17.10;86.30
18894;DHT22;9579;49.488;8.226;2023-05-24T07:02:46;17.10;85.30
18894;DHT22;9579;49.488;8.226;2023-05-24T07:05:34;17.30;86.80
18894;DHT22;9579;49.488;8.226;2023-05-24T07:08:21;17.50;84.50
18894;DHT22;9579;49.488;8.226;2023-05-24T07:11:09;17.40;84.10
18894;DHT22;9579;49.488;8.226;2023-05-24T07:13:57;17.60;84.30
18894;DHT22;9579;49.488;8.226;2023-05-24T07:16:44;17.50;82.50
18894;DHT22;9579;49.488;8.226;2023-05-24T07:19:31;17.60;84.50
18894;DHT22;9579;49.488;8.226;2023-05-24T07:22:20;17.60;82.50
18894;DHT22;9579;49.488;8.226;2023-05-24T07:25:09;17.50;84.40
18894;DHT22;9579;49.488;8.226;2023-05-24T07:27:57;17.50;84.20
18894;DHT22;9579;49.488;8.226;2023-05-24T07:30:44;17.80;84.50
18894;DHT22;9579;49.488;8.226;2023-05-24T07:33:31;17.80;82.90
18894;DHT22;9579;49.488;8.226;2023-05-24T07:36:19;18.00;83.80
18894;DHT22;9579;49.488;8.226;2023-05-24T07:39:06;17.70;83.10
18894;DHT22;9579;49.488;8.226;2023-05-24T07:41:54;17.90;85.10
18894;DHT22;9579;49.488;8.226;2023-05-24T07:44:45;18.00;83.20
18894;DHT22;9579;49.488;8.226;2023-05-24T07:47:32;18.10;84.90
18894;DHT22;9579;49.488;8.226;2023-05-24T07:50:19;18.20;83.70
18894;DHT22;9579;49.488;8.226;2023-05-24T07:53:06;18.40;83.70
18894;DHT22;9579;49.488;8.226;2023-05-24T07:55:53;18.30;83.40
18894;DHT22;9579;49.488;8.226;2023-05-24T07:58:41;18.60;81.60
18894;DHT22;9579;49.488;8.226;2023-05-24T08:01:33;18.60;80.00
18894;DHT22;9579;49.488;8.226;2023-05-24T08:04:20;18.60;79.30
18894;DHT22;9579;49.488;8.226;2023-05-24T08:07:08;18.70;79.80
18894;DHT22;9579;49.488;8.226;2023-05-24T08:09:55;18.80;80.70
18894;DHT22;9579;49.488;8.226;2023-05-24T08:12:42;18.70;79.80
18894;DHT22;9579;49.488;8.226;2023-05-24T08:15:29;18.60;80.80
18894;DHT22;9579;49.488;8.226;2023-05-24T08:18:17;18.50;80.00
18894;DHT22;9579;49.488;8.226;2023-05-24T08:21:04;18.80;80.20
18894;DHT22;9579;49.488;8.226;2023-05-24T08:23:52;18.80;79.30
18894;DHT22;9579;49.488;8.226;2023-05-24T08:26:40;19.00;78.50
18894;DHT22;9579;49.488;8.226;2023-05-24T08:29:28;19.20;77.70
18894;DHT22;9579;49.488;8.226;2023-05-24T08:32:15;19.50;76.10
18894;DHT22;9579;49.488;8.226;2023-05-24T08:35:04;19.70;73.80
18894;DHT22;9579;49.488;8.226;2023-05-24T08:37:51;19.90;77.60
18894;DHT22;9579;49.488;8.226;2023-05-24T08:40:38;20.10;73.50
18894;DHT22;9579;49.488;8.226;2023-05-24T08:43:25;20.10;74.90
18894;DHT22;9579;49.488;8.226;2023-05-24T08:46:15;20.20;73.00
18894;DHT22;9579;49.488;8.226;2023-05-24T08:49:03;20.20;72.80
18894;DHT22;9579;49.488;8.226;2023-05-24T08:51:52;20.30;72.90
18894;DHT22;9579;49.488;8.226;2023-05-24T08:54:39;20.30;73.10
18894;DHT22;9579;49.488;8.226;2023-05-24T08:57:27;20.40;73.70
18894;DHT22;9579;49.488;8.226;2023-05-24T09:00:16;20.40;73.00
18894;DHT22;9579;49.488;8.226;2023-05-24T09:03:04;20.60;72.90
18894;DHT22;9579;49.488;8.226;2023-05-24T09:05:51;20.60;71.20
18894;DHT22;9579;49.488;8.226;2023-05-24T09:08:41;20.50;70.40
18894;DHT22;9579;49.488;8.226;2023-05-24T09:11:31;20.60;70.20
18894;DHT22;9579;49.488;8.226;2023-05-24T09:14:19;20.70;72.00
18894;DHT22;9579;49.488;8.226;2023-05-24T09:17:06;20.70;70.20
18894;DHT22;9579;49.488;8.226;2023-05-24T09:19:53;20.70;68.90
18894;DHT22;9579;49.488;8.226;2023-05-24T09:22:41;20.40;70.00
18894;DHT22;9579;49.488;8.226;2023-05-24T09:25:30;20.40;72.40
18894;DHT22;9579;49.488;8.226;2023-05-24T09:28:17;20.60;74.00
18894;DHT22;9579;49.488;8.226;2023-05-24T09:31:05;21.10;73.40
18894;DHT22;9579;49.488;8.226;2023-05-24T09:33:52;21.30;72.50
18894;DHT22;9579;49.488;8.226;2023-05-24T09:36:40;21.30;72.60
18894;DHT22;9579;49.488;8.226;2023-05-24T09:39:28;21.80;71.70
18894;DHT22;9579;49.488;8.226;2023-05-24T09:42:19;22.00;71.50
18894;DHT22;9579;49.488;8.226;2023-05-24T09:45:09;21.90;70.80
18894;DHT22;9579;49.488;8.226;2023-05-24T09:47:57;21.70;71.20
18894;DHT22;9579;49.488;8.226;2023-05-24T09:50:44;21.70;70.50
18894;DHT22;9579;49.488;8.226;2023-05-24T09:53:43;21.70;71.30
18894;DHT22;9579;49.488;8.226;2023-05-24T09:56:32;21.50;72.30
18894;DHT22;9579;49.488;8.226;2023-05-24T09:59:21;21.30;72.60
18894;DHT22;9579;49.488;8.226;2023-05-24T10:02:09;21.20;71.60
18894;DHT22;9579;49.488;8.226;2023-05-24T10:04:58;20.90;71.30
18894;DHT22;9579;49.488;8.226;2023-05-24T10:07:45;21.10;71.80
18894;DHT22;9579;49.488;8.226;2023-05-24T10:10:33;21.20;71.30
18894;DHT22;9579;49.488;8.226;2023-05-24T10:13:22;21.40;73.80
18894;DHT22;9579;49.488;8.226;2023-05-24T10:16:10;21.80;70.70
18894;DHT22;9579;49.488;8.226;2023-05-24T10:18:58;21.90;71.10
18894;DHT22;9579;49.488;8.226;2023-05-24T10:21:45;22.10;71.80
18894;DHT22;9579;49.488;8.226;2023-05-24T10:24:37;22.10;69.40
18894;DHT22;9579;49.488;8.226;2023-05-24T10:27:27;22.30;70.30
18894;DHT22;9579;49.488;8.226;2023-05-24T10:30:22;22.50;67.90
18894;DHT22;9579;49.488;8.226;2023-05-24T10:33:14;22.40;69.20
18894;DHT22;9579;49.488;8.226;2023-05-24T10:36:03;22.70;69.20
18894;DHT22;9579;49.488;8.226;2023-05-24T10:38:52;22.90;69.10
18894;DHT22;9579;49.488;8.226;2023-05-24T10:41:40;23.00;68.80
18894;DHT22;9579;49.488;8.226;2023-05-24T10:44:28;22.90;67.20
18894;DHT22;9579;49.488;8.226;2023-05-24T10:47:19;22.80;68.10
18894;DHT22;9579;49.488;8.226;2023-05-24T10:50:15;22.70;68.60
18894;DHT22;9579;49.488;8.226;2023-05-24T10:53:13;22.80;71.00
18894;DHT22;9579;49.488;8.226;2023-05-24T10:56:01;22.60;69.40
18894;DHT22;9579;49.488;8.226;2023-05-24T10:58:58;22.80;70.30
18894;DHT22;9579;49.488;8.226;2023-05-24T11:01:53;23.10;69.80
18894;DHT22;9579;49.488;8.226;2023-05-24T11:04:44;23.20;70.20
18894;DHT22;9579;49.488;8.226;2023-05-24T11:07:40;23.30;70.50
18894;DHT22;9579;49.488;8.226;2023-05-24T11:10:29;23.40;70.40
18894;DHT22;9579;49.488;8.226;2023-05-24T11:13:17;23.60;69.40
18894;DHT22;9579;49.488;8.226;2023-05-24T11:16:05;23.40;70.10
18894;DHT22;9579;49.488;8.226;2023-05-24T11:18:54;23.70;67.90
18894;DHT22;9579;49.488;8.226;2023-05-24T11:21:43;23.90;68.40
18894;DHT22;9579;49.488;8.226;2023-05-24T11:24:32;24.00;69.80
18894;DHT22;9579;49.488;8.226;2023-05-24T11:27:20;24.00;67.40
18894;DHT22;9579;49.488;8.226;2023-05-24T11:30:08;24.10;65.20
18894;DHT22;9579;49.488;8.226;2023-05-24T11:32:57;24.30;66.70
18894;DHT22;9579;49.488;8.226;2023-05-24T11:35:46;24.40;63.80
18894;DHT22;9579;49.488;8.226;2023-05-24T11:38:34;24.40;62.80
18894;DHT22;9579;49.488;8.226;2023-05-24T11:41:24;24.50;64.40
18894;DHT22;9579;49.488;8.226;2023-05-24T11:44:16;24.80;65.60
18894;DHT22;9579;49.488;8.226;2023-05-24T11:47:05;25.00;62.70
18894;DHT22;9579;49.488;8.226;2023-05-24T11:49:52;25.20;64.50
18894;DHT22;9579;49.488;8.226;2023-05-24T11:52:39;25.00;65.50
18894;DHT22;9579;49.488;8.226;2023-05-24T11:55:33;24.70;65.10
18894;DHT22;9579;49.488;8.226;2023-05-24T11:58:23;25.00;65.80
18894;DHT22;9579;49.488;8.226;2023-05-24T12:01:22;25.00;63.70
18894;DHT22;9579;49.488;8.226;2023-05-24T12:04:09;25.50;63.60
18894;DHT22;9579;49.488;8.226;2023-05-24T12:06:57;25.60;62.50
18894;DHT22;9579;49.488;8.226;2023-05-24T12:09:44;25.70;64.00
18894;DHT22;9579;49.488;8.226;2023-05-24T12:12:32;25.70;61.50
18894;DHT22;9579;49.488;8.226;2023-05-24T12:15:24;25.80;61.70
18894;DHT22;9579;49.488;8.226;2023-05-24T12:18:17;25.80;60.60
18894;DHT22;9579;49.488;8.226;2023-05-24T12:21:09;25.80;63.80
18894;DHT22;9579;49.488;8.226;2023-05-24T12:24:03;25.40;61.70
18894;DHT22;9579;49.488;8.226;2023-05-24T12:26:58;25.30;59.80
18894;DHT22;9579;49.488;8.226;2023-05-24T12:29:46;25.40;59.90
18894;DHT22;9579;49.488;8.226;2023-05-24T12:32:36;25.70;60.50
18894;DHT22;9579;49.488;8.226;2023-05-24T12:35:23;26.00;59.70
18894;DHT22;9579;49.488;8.226;2023-05-24T12:38:10;26.20;59.80
18894;DHT22;9579;49.488;8.226;2023-05-24T12:40:59;26.20;57.70
18894;DHT22;9579;49.488;8.226;2023-05-24T12:43:46;26.30;59.20
18894;DHT22;9579;49.488;8.226;2023-05-24T12:46:33;26.30;58.20
18894;DHT22;9579;49.488;8.226;2023-05-24T12:49:22;26.20;58.60
18894;DHT22;9579;49.488;8.226;2023-05-24T12:52:11;26.30;59.90
18894;DHT22;9579;49.488;8.226;2023-05-24T12:54:58;26.50;58.00
18894;DHT22;9579;49.488;8.226;2023-05-24T12:57:45;26.50;59.20
18894;DHT22;9579;49.488;8.226;2023-05-24T13:00:37;26.60;57.00
18894;DHT22;9579;49.488;8.226;2023-05-24T13:03:24;26.70;57.90
18894;DHT22;9579;49.488;8.226;2023-05-24T13:06:13;27.00;57.20
18894;DHT22;9579;49.488;8.226;2023-05-24T13:09:00;27.20;55.40
18894;DHT22;9579;49.488;8.226;2023-05-24T13:11:47;27.60;55.60
18894;DHT22;9579;49.488;8.226;2023-05-24T13:14:35;28.00;54.70
18894;DHT22;9579;49.488;8.226;2023-05-24T13:17:22;28.10;54.00
18894;DHT22;9579;49.488;8.226;2023-05-24T13:20:09;28.00;54.20
18894;DHT22;9579;49.488;8.226;2023-05-24T13:22:58;28.00;55.10
18894;DHT22;9579;49.488;8.226;2023-05-24T13:25:46;28.00;55.90
18894;DHT22;9579;49.488;8.226;2023-05-24T13:28:34;27.90;55.40
18894;DHT22;9579;49.488;8.226;2023-05-24T13:31:21;28.10;55.00
18894;DHT22;9579;49.488;8.226;2023-05-24T13:34:08;28.30;55.10
18894;DHT22;9579;49.488;8.226;2023-05-24T13:36:56;28.00;55.40
18894;DHT22;9579;49.488;8.226;2023-05-24T13:39:46;27.60;56.20
18894;DHT22;9579;49.488;8.226;2023-05-24T13:42:33;26.50;56.90
18894;DHT22;9579;49.488;8.226;2023-05-24T13:45:20;25.90;57.80
18894;DHT22;9579;49.488;8.226;2023-05-24T13:48:08;25.70;58.60
18894;DHT22;9579;49.488;8.226;2023-05-24T13:50:55;25.50;57.20
18894;DHT22;9579;49.488;8.226;2023-05-24T13:53:42;25.20;58.80
18894;DHT22;9579;49.488;8.226;2023-05-24T13:56:31;25.00;58.30
18894;DHT22;9579;49.488;8.226;2023-05-24T13:59:18;25.00;59.40
18894;DHT22;9579;49.488;8.226;2023-05-24T14:02:06;24.90;57.50
18894;DHT22;9579;49.488;8.226;2023-05-24T14:04:54;24.80;57.20
18894;DHT22;9579;49.488;8.226;2023-05-24T14:07:41;24.90;58.90
18894;DHT22;9579;49.488;8.226;2023-05-24T14:10:28;25.10;59.70
18894;DHT22;9579;49.488;8.226;2023-05-24T14:13:16;25.30;57.90
18894;DHT22;9579;49.488;8.226;2023-05-24T14:16:04;25.40;56.70
18894;DHT22;9579;49.488;8.226;2023-05-24T14:18:56;25.40;57.20
18894;DHT22;9579;49.488;8.226;2023-05-24T14:21:43;25.60;57.00
18894;DHT22;9579;49.488;8.226;2023-05-24T14:24:31;25.70;57.00
18894;DHT22;9579;49.488;8.226;2023-05-24T14:27:18;25.90;56.00
18894;DHT22;9579;49.488;8.226;2023-05-24T14:30:07;26.30;55.50
18894;DHT22;9579;49.488;8.226;2023-05-24T14:32:55;26.40;53.90
18894;DHT22;9579;49.488;8.226;2023-05-24T14:35:42;26.20;55.20
18894;DHT22;9579;49.488;8.226;2023-05-24T14:38:29;25.90;55.70
18894;DHT22;9579;49.488;8.226;2023-05-24T14:41:16;25.90;56.00
18894;DHT22;9579;49.488;8.226;2023-05-24T14:44:03;26.10;56.10
18894;DHT22;9579;49.488;8.226;2023-05-24T14:46:54;26.20;57.10
18894;DHT22;9579;49.488;8.226;2023-05-24T14:49:41;26.10;56.80
18894;DHT22;9579;49.488;8.226;2023-05-24T14:52:28;25.80;58.80
18894;DHT22;9579;49.488;8.226;2023-05-24T14:55:17;25.40;57.10
18894;DHT22;9579;49.488;8.226;2023-05-24T14:58:05;24.80;57.30
18894;DHT22;9579;49.488;8.226;2023-05-24T15:00:53;24.50;58.80
18894;DHT22;9579;49.488;8.226;2023-05-24T15:03:50;24.30;59.10
18894;DHT22;9579;49.488;8.226;2023-05-24T15:06:37;24.10;60.70
18894;DHT22;9579;49.488;8.226;2023-05-24T15:09:25;24.00;59.90
18894;DHT22;9579;49.488;8.226;2023-05-24T15:12:12;23.80;60.50
18894;DHT22;9579;49.488;8.226;2023-05-24T15:14:59;23.60;61.60
18894;DHT22;9579;49.488;8.226;2023-05-24T15:17:47;23.50;62.00
18894;DHT22;9579;49.488;8.226;2023-05-24T15:20:35;23.40;60.80
18894;DHT22;9579;49.488;8.226;2023-05-24T15:23:23;23.50;60.10
18894;DHT22;9579;49.488;8.226;2023-05-24T15:26:11;23.30;60.90
18894;DHT22;9579;49.488;8.226;2023-05-24T15:29:01;23.50;61.90
18894;DHT22;9579;49.488;8.226;2023-05-24T15:31:51;24.00;62.00
18894;DHT22;9579;49.488;8.226;2023-05-24T15:34:39;24.10;61.40
18894;DHT22;9579;49.488;8.226;2023-05-24T15:37:27;24.30;61.40
18894;DHT22;9579;49.488;8.226;2023-05-24T15:40:14;23.90;61.40
18894;DHT22;9579;49.488;8.226;2023-05-24T15:43:03;23.50;62.20
18894;DHT22;9579;49.488;8.226;2023-05-24T15:45:50;23.10;62.40
18894;DHT22;9579;49.488;8.226;2023-05-24T15:48:38;22.70;64.40
18894;DHT22;9579;49.488;8.226;2023-05-24T15:51:25;22.40;64.60
18894;DHT22;9579;49.488;8.226;2023-05-24T15:54:13;22.00;65.40
18894;DHT22;9579;49.488;8.226;2023-05-24T15:57:01;21.80;64.90
18894;DHT22;9579;49.488;8.226;2023-05-24T15:59:48;21.60;65.60
18894;DHT22;9579;49.488;8.226;2023-05-24T16:02:35;21.50;66.30
18894;DHT22;9579;49.488;8.226;2023-05-24T16:05:22;21.80;67.30
18894;DHT22;9579;49.488;8.226;2023-05-24T16:08:10;21.20;65.50
18894;DHT22;9579;49.488;8.226;2023-05-24T16:10:59;21.10;66.50
18894;DHT22;9579;49.488;8.226;2023-05-24T16:13:48;21.10;67.00
18894;DHT22;9579;49.488;8.226;2023-05-24T16:16:35;21.00;66.80
18894;DHT22;9579;49.488;8.226;2023-05-24T16:19:22;21.00;67.10
18894;DHT22;9579;49.488;8.226;2023-05-24T16:22:10;21.00;68.00
18894;DHT22;9579;49.488;8.226;2023-05-24T16:24:57;21.10;67.90
18894;DHT22;9579;49.488;8.226;2023-05-24T16:27:45;21.20;67.20
18894;DHT22;9579;49.488;8.226;2023-05-24T16:30:32;21.30;68.10
18894;DHT22;9579;49.488;8.226;2023-05-24T16:33:21;21.10;67.40
18894;DHT22;9579;49.488;8.226;2023-05-24T16:36:08;20.90;68.20
18894;DHT22;9579;49.488;8.226;2023-05-24T16:38:56;20.70;69.10
18894;DHT22;9579;49.488;8.226;2023-05-24T16:41:43;20.60;68.40
18894;DHT22;9579;49.488;8.226;2023-05-24T16:44:31;20.50;67.80
18894;DHT22;9579;49.488;8.226;2023-05-24T16:47:18;20.50;68.80
18894;DHT22;9579;49.488;8.226;2023-05-24T16:50:06;20.50;69.30
18894;DHT22;9579;49.488;8.226;2023-05-24T16:52:59;20.40;70.10
18894;DHT22;9579;49.488;8.226;2023-05-24T16:55:46;20.40;71.20
18894;DHT22;9579;49.488;8.226;2023-05-24T16:58:38;21.30;71.10
18894;DHT22;9579;49.488;8.226;2023-05-24T17:01:26;20.40;69.70
18894;DHT22;9579;49.488;8.226;2023-05-24T17:04:13;20.40;68.80
18894;DHT22;9579;49.488;8.226;2023-05-24T17:07:00;20.30;69.70
18894;DHT22;9579;49.488;8.226;2023-05-24T17:09:48;20.20;69.10
18894;DHT22;9579;49.488;8.226;2023-05-24T17:12:35;20.20;70.20
18894;DHT22;9579;49.488;8.226;2023-05-24T17:15:23;20.00;68.90
18894;DHT22;9579;49.488;8.226;2023-05-24T17:18:11;20.00;69.80
18894;DHT22;9579;49.488;8.226;2023-05-24T17:21:00;20.00;69.50
18894;DHT22;9579;49.488;8.226;2023-05-24T17:23:47;19.90;69.50
18894;DHT22;9579;49.488;8.226;2023-05-24T17:26:34;20.40;70.70
18894;DHT22;9579;49.488;8.226;2023-05-24T17:29:23;19.90;69.70
18894;DHT22;9579;49.488;8.226;2023-05-24T17:32:11;19.90;69.40
18894;DHT22;9579;49.488;8.226;2023-05-24T17:34:59;19.80;68.70
18894;DHT22;9579;49.488;8.226;2023-05-24T17:37:46;20.80;70.20
18894;DHT22;9579;49.488;8.226;2023-05-24T17:40:33;19.60;69.30
18894;DHT22;9579;49.488;8.226;2023-05-24T17:43:21;19.60;68.80
18894;DHT22;9579;49.488;8.226;2023-05-24T17:46:08;19.50;68.20
18894;DHT22;9579;49.488;8.226;2023-05-24T17:48:57;19.50;69.50
18894;DHT22;9579;49.488;8.226;2023-05-24T17:52:08;19.50;69.20
18894;DHT22;9579;49.488;8.226;2023-05-24T17:55:13;19.50;70.30
18894;DHT22;9579;49.488;8.226;2023-05-24T17:58:09;19.40;70.50
18894;DHT22;9579;49.488;8.226;2023-05-24T18:00:57;19.40;70.10
18894;DHT22;9579;49.488;8.226;2023-05-24T18:40:45;19.00;71.90
18894;DHT22;9579;49.488;8.226;2023-05-24T18:43:33;18.90;76.50
18894;DHT22;9579;49.488;8.226;2023-05-24T18:46:21;19.10;74.50
18894;DHT22;9579;49.488;8.226;2023-05-24T18:49:08;19.20;71.80
18894;DHT22;9579;49.488;8.226;2023-05-24T18:51:57;19.20;70.80
18894;DHT22;9579;49.488;8.226;2023-05-24T18:54:45;19.40;72.20
18894;DHT22;9579;49.488;8.226;2023-05-24T18:57:35;19.30;71.70
18894;DHT22;9579;49.488;8.226;2023-05-24T19:00:24;19.20;71.50
18894;DHT22;9579;49.488;8.226;2023-05-24T19:03:11;19.10;72.00
18894;DHT22;9579;49.488;8.226;2023-05-24T19:06:03;18.90;72.40
18894;DHT22;9579;49.488;8.226;2023-05-24T19:08:50;19.00;72.40
18894;DHT22;9579;49.488;8.226;2023-05-24T19:11:37;19.00;72.50
18894;DHT22;9579;49.488;8.226;2023-05-24T19:14:26;19.00;73.10
18894;DHT22;9579;49.488;8.226;2023-05-24T19:17:15;18.90;73.00
18894;DHT22;9579;49.488;8.226;2023-05-24T19:20:03;18.90;73.10
18894;DHT22;9579;49.488;8.226;2023-05-24T19:22:50;18.90;73.60
18894;DHT22;9579;49.488;8.226;2023-05-24T19:25:37;18.80;73.60
18894;DHT22;9579;49.488;8.226;2023-05-24T19:28:25;18.80;73.50
18894;DHT22;9579;49.488;8.226;2023-05-24T19:31:14;18.80;74.20
18894;DHT22;9579;49.488;8.226;2023-05-24T19:34:02;18.70;73.90
18894;DHT22;9579;49.488;8.226;2023-05-24T19:36:49;18.70;74.60
18894;DHT22;9579;49.488;8.226;2023-05-24T19:39:37;18.70;75.10
18894;DHT22;9579;49.488;8.226;2023-05-24T19:42:24;18.60;74.80
18894;DHT22;9579;49.488;8.226;2023-05-24T19:45:11;18.50;75.20
18894;DHT22;9579;49.488;8.226;2023-05-24T19:48:01;18.50;75.60
18894;DHT22;9579;49.488;8.226;2023-05-24T19:50:49;18.50;75.90
18894;DHT22;9579;49.488;8.226;2023-05-24T19:53:36;18.30;75.40
18894;DHT22;9579;49.488;8.226;2023-05-24T19:56:24;18.30;76.00
18894;DHT22;9579;49.488;8.226;2023-05-24T19:59:11;18.20;76.80
18894;DHT22;9579;49.488;8.226;2023-05-24T20:01:58;18.10;76.60
18894;DHT22;9579;49.488;8.226;2023-05-24T20:04:50;18.00;76.00
18894;DHT22;9579;49.488;8.226;2023-05-24T20:07:40;18.00;76.60
18894;DHT22;9579;49.488;8.226;2023-05-24T20:10:27;17.90;76.10
18894;DHT22;9579;49.488;8.226;2023-05-24T20:13:16;17.90;76.60
18894;DHT22;9579;49.488;8.226;2023-05-24T20:16:04;17.90;77.20
18894;DHT22;9579;49.488;8.226;2023-05-24T20:18:51;17.80;76.20
18894;DHT22;9579;49.488;8.226;2023-05-24T20:21:40;17.70;76.40
18894;DHT22;9579;49.488;8.226;2023-05-24T20:24:28;17.70;76.80
18894;DHT22;9579;49.488;8.226;2023-05-24T20:27:15;17.60;76.70
18894;DHT22;9579;49.488;8.226;2023-05-24T20:30:04;17.50;76.70
18894;DHT22;9579;49.488;8.226;2023-05-24T20:32:56;17.40;77.70
18894;DHT22;9579;49.488;8.226;2023-05-24T20:35:43;17.30;77.40
18894;DHT22;9579;49.488;8.226;2023-05-24T20:38:31;17.30;77.70
18894;DHT22;9579;49.488;8.226;2023-05-24T20:41:19;17.20;78.20
18894;DHT22;9579;49.488;8.226;2023-05-24T20:44:06;17.10;78.20
18894;DHT22;9579;49.488;8.226;2023-05-24T20:46:53;17.10;78.20
18894;DHT22;9579;49.488;8.226;2023-05-24T20:49:40;17.00;78.80
18894;DHT22;9579;49.488;8.226;2023-05-24T20:52:27;16.90;78.70
18894;DHT22;9579;49.488;8.226;2023-05-24T20:55:15;16.90;79.60
18894;DHT22;9579;49.488;8.226;2023-05-24T20:58:03;16.80;80.50
18894;DHT22;9579;49.488;8.226;2023-05-24T21:00:50;16.90;87.70
18894;DHT22;9579;49.488;8.226;2023-05-24T21:03:37;16.80;89.80
18894;DHT22;9579;49.488;8.226;2023-05-24T21:06:24;16.80;89.90
18894;DHT22;9579;49.488;8.226;2023-05-24T21:09:11;16.80;88.30
18894;DHT22;9579;49.488;8.226;2023-05-24T21:12:00;16.80;88.40
18894;DHT22;9579;49.488;8.226;2023-05-24T21:14:47;16.60;87.80
18894;DHT22;9579;49.488;8.226;2023-05-24T21:17:34;16.70;88.50
18894;DHT22;9579;49.488;8.226;2023-05-24T21:20:21;16.50;87.20
18894;DHT22;9579;49.488;8.226;2023-05-24T21:23:08;16.50;87.00
18894;DHT22;9579;49.488;8.226;2023-05-24T21:25:55;16.40;87.00
18894;DHT22;9579;49.488;8.226;2023-05-24T21:28:44;16.40;86.90
18894;DHT22;9579;49.488;8.226;2023-05-24T21:31:31;16.40;87.00
18894;DHT22;9579;49.488;8.226;2023-05-24T21:34:20;16.40;86.80
18894;DHT22;9579;49.488;8.226;2023-05-24T21:37:07;16.40;86.50
18894;DHT22;9579;49.488;8.226;2023-05-24T21:39:54;16.30;86.60
18894;DHT22;9579;49.488;8.226;2023-05-24T21:42:41;16.30;86.70
18894;DHT22;9579;49.488;8.226;2023-05-24T21:45:30;16.20;86.80
18894;DHT22;9579;49.488;8.226;2023-05-24T21:48:17;16.30;87.30
18894;DHT22;9579;49.488;8.226;2023-05-24T21:51:04;16.30;86.90
18894;DHT22;9579;49.488;8.226;2023-05-24T21:53:51;16.30;87.00
18894;DHT22;9579;49.488;8.226;2023-05-24T21:56:38;16.30;87.30
18894;DHT22;9579;49.488;8.226;2023-05-24T21:59:25;16.30;87.40
18894;DHT22;9579;49.488;8.226;2023-05-24T22:02:14;16.30;86.10
18894;DHT22;9579;49.488;8.226;2023-05-24T22:05:01;16.30;86.10
18894;DHT22;9579;49.488;8.226;2023-05-24T22:07:49;16.20;86.20
18894;DHT22;9579;49.488;8.226;2023-05-24T22:10:36;16.20;86.00
18894;DHT22;9579;49.488;8.226;2023-05-24T22:13:23;16.20;86.10
18894;DHT22;9579;49.488;8.226;2023-05-24T22:16:10;16.10;85.90
18894;DHT22;9579;49.488;8.226;2023-05-24T22:18:59;16.10;86.00
18894;DHT22;9579;49.488;8.226;2023-05-24T22:21:48;16.10;87.10
18894;DHT22;9579;49.488;8.226;2023-05-24T22:24:36;16.00;86.20
18894;DHT22;9579;49.488;8.226;2023-05-24T22:27:23;15.90;86.00
18894;DHT22;9579;49.488;8.226;2023-05-24T22:30:11;15.80;86.50
18894;DHT22;9579;49.488;8.226;2023-05-24T22:32:59;15.70;86.20
18894;DHT22;9579;49.488;8.226;2023-05-24T22:35:47;15.70;86.80
18894;DHT22;9579;49.488;8.226;2023-05-24T22:38:34;15.70;87.20
18894;DHT22;9579;49.488;8.226;2023-05-24T22:41:21;15.60;86.60
18894;DHT22;9579;49.488;8.226;2023-05-24T22:44:08;15.60;87.80
18894;DHT22;9579;49.488;8.226;2023-05-24T22:46:55;15.50;87.80
18894;DHT22;9579;49.488;8.226;2023-05-24T22:49:42;15.50;88.60
18894;DHT22;9579;49.488;8.226;2023-05-24T22:52:31;15.40;88.20
18894;DHT22;9579;49.488;8.226;2023-05-24T22:55:19;15.30;88.50
18894;DHT22;9579;49.488;8.226;2023-05-24T22:58:06;15.30;88.80
18894;DHT22;9579;49.488;8.226;2023-05-24T23:00:53;15.20;89.00
18894;DHT22;9579;49.488;8.226;2023-05-24T23:03:40;15.20;90.10
18894;DHT22;9579;49.488;8.226;2023-05-24T23:06:27;15.20;90.00
18894;DHT22;9579;49.488;8.226;2023-05-24T23:09:18;15.10;89.20
18894;DHT22;9579;49.488;8.226;2023-05-24T23:12:13;15.10;90.10
18894;DHT22;9579;49.488;8.226;2023-05-24T23:15:02;15.00;89.80
18894;DHT22;9579;49.488;8.226;2023-05-24T23:17:49;15.00;89.80
18894;DHT22;9579;49.488;8.226;2023-05-24T23:20:37;15.00;89.70
18894;DHT22;9579;49.488;8.226;2023-05-24T23:23:25;15.00;90.40
18894;DHT22;9579;49.488;8.226;2023-05-24T23:26:15;15.00;90.20
18894;DHT22;9579;49.488;8.226;2023-05-24T23:29:02;14.90;90.30
18894;DHT22;9579;49.488;8.226;2023-05-24T23:31:49;14.90;90.10
18894;DHT22;9579;49.488;8.226;2023-05-24T23:34:36;14.90;90.50
18894;DHT22;9579;49.488;8.226;2023-05-24T23:37:23;14.90;90.20
18894;DHT22;9579;49.488;8.226;2023-05-24T23:40:11;14.80;90.40
18894;DHT22;9579;49.488;8.226;2023-05-24T23:42:59;14.80;90.40
18894;DHT22;9579;49.488;8.226;2023-05-24T23:45:46;14.80;90.60
18894;DHT22;9579;49.488;8.226;2023-05-24T23:48:33;14.80;90.60
